sensor_id;sensor_type;location;lat;lon;timestamp;pressure;altitude;pressure_sealevel;temperature;humidity
46778;BME280;32536;47.128;8.746;2023-04-20T00:01:12;91265.31;;;8.87;52.49
46778;BME280;32536;47.128;8.746;2023-04-20T00:03:39;91254.22;;;8.89;52.11
46778;BME280;32536;47.128;8.746;2023-04-20T00:06:06;91250.78;;;8.88;52.18
46778;BME280;32536;47.128;8.746;2023-04-20T00:08:32;91247.78;;;8.86;52.30
46778;BME280;32536;47.128;8.746;2023-04-20T00:10:59;91244.75;;;8.84;52.02
46778;BME280;32536;47.128;8.746;2023-04-20T00:13:26;91233.72;;;8.82;52.32
46778;BME280;32536;47.128;8.746;2023-04-20T00:15:52;91232.59;;;8.79;52.47
46778;BME280;32536;47.128;8.746;2023-04-20T00:18:19;91238.03;;;8.72;52.47
46778;BME280;32536;47.128;8.746;2023-04-20T00:20:49;91224.38;;;8.67;52.20
46778;BME280;32536;47.128;8.746;2023-04-20T00:23:16;91228.59;;;8.64;52.23
46778;BME280;32536;47.128;8.746;2023-04-20T00:25:42;91222.09;;;8.65;52.48
46778;BME280;32536;47.128;8.746;2023-04-20T00:28:09;91216.75;;;8.65;52.32
46778;BME280;32536;47.128;8.746;2023-04-20T00:30:36;91213.41;;;8.61;52.69
46778;BME280;32536;47.128;8.746;2023-04-20T00:33:02;91214.50;;;8.63;52.36
46778;BME280;32536;47.128;8.746;2023-04-20T00:35:29;91208.75;;;8.65;52.59
46778;BME280;32536;47.128;8.746;2023-04-20T00:37:56;91203.47;;;8.61;52.37
46778;BME280;32536;47.128;8.746;2023-04-20T00:40:22;91199.72;;;8.55;52.30
46778;BME280;32536;47.128;8.746;2023-04-20T00:42:49;91202.44;;;8.52;52.26
46778;BME280;32536;47.128;8.746;2023-04-20T00:45:16;91195.28;;;8.45;52.51
46778;BME280;32536;47.128;8.746;2023-04-20T00:47:43;91195.78;;;8.36;52.56
46778;BME280;32536;47.128;8.746;2023-04-20T00:50:09;91189.75;;;8.28;52.31
46778;BME280;32536;47.128;8.746;2023-04-20T00:52:36;91189.50;;;8.19;52.56
46778;BME280;32536;47.128;8.746;2023-04-20T00:55:04;91178.13;;;8.11;52.83
46778;BME280;32536;47.128;8.746;2023-04-20T00:57:31;91173.59;;;8.08;52.98
46778;BME280;32536;47.128;8.746;2023-04-20T00:59:58;91177.38;;;8.11;52.96
46778;BME280;32536;47.128;8.746;2023-04-20T01:02:26;91177.03;;;8.09;52.93
46778;BME280;32536;47.128;8.746;2023-04-20T01:04:53;91170.53;;;8.10;52.69
46778;BME280;32536;47.128;8.746;2023-04-20T01:07:21;91170.09;;;8.15;52.85
46778;BME280;32536;47.128;8.746;2023-04-20T01:09:47;91166.25;;;8.16;52.38
46778;BME280;32536;47.128;8.746;2023-04-20T01:12:14;91169.31;;;8.18;52.81
46778;BME280;32536;47.128;8.746;2023-04-20T01:14:41;91159.78;;;8.17;52.99
46778;BME280;32536;47.128;8.746;2023-04-20T01:17:08;91150.25;;;8.16;52.96
46778;BME280;32536;47.128;8.746;2023-04-20T01:19:34;91156.69;;;8.18;53.05
46778;BME280;32536;47.128;8.746;2023-04-20T01:22:01;91156.28;;;8.20;53.16
46778;BME280;32536;47.128;8.746;2023-04-20T01:24:28;91155.91;;;8.22;53.22
46778;BME280;32536;47.128;8.746;2023-04-20T01:26:55;91152.38;;;8.28;53.33
46778;BME280;32536;47.128;8.746;2023-04-20T01:29:22;91154.50;;;8.41;53.06
46778;BME280;32536;47.128;8.746;2023-04-20T01:31:49;91144.47;;;8.52;52.78
46778;BME280;32536;47.128;8.746;2023-04-20T01:34:15;91147.44;;;8.58;52.81
46778;BME280;32536;47.128;8.746;2023-04-20T01:36:42;91135.56;;;8.62;52.70
46778;BME280;32536;47.128;8.746;2023-04-20T01:39:10;91141.59;;;8.67;52.20
46778;BME280;32536;47.128;8.746;2023-04-20T01:41:38;91132.31;;;8.75;52.55
46778;BME280;32536;47.128;8.746;2023-04-20T01:44:05;91134.66;;;8.73;52.35
46778;BME280;32536;47.128;8.746;2023-04-20T01:46:31;91129.75;;;8.68;52.32
46778;BME280;32536;47.128;8.746;2023-04-20T01:49:01;91114.19;;;8.62;52.60
46778;BME280;32536;47.128;8.746;2023-04-20T01:51:28;91125.38;;;8.54;52.69
46778;BME280;32536;47.128;8.746;2023-04-20T01:53:54;91119.75;;;8.48;52.66
46778;BME280;32536;47.128;8.746;2023-04-20T01:56:21;91120.16;;;8.43;53.00
46778;BME280;32536;47.128;8.746;2023-04-20T01:58:48;91125.50;;;8.43;52.90
46778;BME280;32536;47.128;8.746;2023-04-20T02:01:14;91117.50;;;8.43;52.78
46778;BME280;32536;47.128;8.746;2023-04-20T02:03:41;91115.97;;;8.42;53.12
46778;BME280;32536;47.128;8.746;2023-04-20T02:06:08;91119.38;;;8.46;53.19
46778;BME280;32536;47.128;8.746;2023-04-20T02:08:35;91106.34;;;8.52;52.75
46778;BME280;32536;47.128;8.746;2023-04-20T02:11:02;91103.34;;;8.49;52.49
46778;BME280;32536;47.128;8.746;2023-04-20T02:13:29;91095.72;;;8.44;52.58
46778;BME280;32536;47.128;8.746;2023-04-20T02:15:55;91097.41;;;8.34;52.56
46778;BME280;32536;47.128;8.746;2023-04-20T02:18:22;91097.91;;;8.26;53.06
46778;BME280;32536;47.128;8.746;2023-04-20T02:20:55;91096.81;;;8.23;53.42
46778;BME280;32536;47.128;8.746;2023-04-20T02:23:22;91099.47;;;8.23;53.43
46778;BME280;32536;47.128;8.746;2023-04-20T02:25:49;91105.88;;;8.29;53.00
46778;BME280;32536;47.128;8.746;2023-04-20T02:28:15;91095.44;;;8.39;53.55
46778;BME280;32536;47.128;8.746;2023-04-20T02:30:42;91093.81;;;8.48;53.27
46778;BME280;32536;47.128;8.746;2023-04-20T02:33:09;91097.88;;;8.57;52.70
46778;BME280;32536;47.128;8.746;2023-04-20T02:35:36;91081.78;;;8.60;52.49
46778;BME280;32536;47.128;8.746;2023-04-20T02:38:03;91074.16;;;8.62;52.78
46778;BME280;32536;47.128;8.746;2023-04-20T02:40:30;91064.97;;;8.63;52.32
46778;BME280;32536;47.128;8.746;2023-04-20T02:42:56;91064.25;;;8.63;52.35
46778;BME280;32536;47.128;8.746;2023-04-20T02:45:23;91065.44;;;8.58;52.63
46778;BME280;32536;47.128;8.746;2023-04-20T02:47:50;91064.72;;;8.54;52.61
46778;BME280;32536;47.128;8.746;2023-04-20T02:50:16;91059.13;;;8.48;53.09
46778;BME280;32536;47.128;8.746;2023-04-20T02:52:43;91050.09;;;8.39;53.01
46778;BME280;32536;47.128;8.746;2023-04-20T02:55:10;91052.50;;;8.29;53.35
46778;BME280;32536;47.128;8.746;2023-04-20T02:57:36;91033.44;;;8.27;53.09
46778;BME280;32536;47.128;8.746;2023-04-20T03:00:04;91048.31;;;8.28;53.47
46778;BME280;32536;47.128;8.746;2023-04-20T03:02:33;91049.88;;;8.26;53.01
46778;BME280;32536;47.128;8.746;2023-04-20T03:05:02;91050.63;;;8.26;52.71
46778;BME280;32536;47.128;8.746;2023-04-20T03:07:29;91051.34;;;8.30;52.76
46778;BME280;32536;47.128;8.746;2023-04-20T03:09:56;91043.28;;;8.34;52.77
46778;BME280;32536;47.128;8.746;2023-04-20T03:12:23;91044.78;;;8.35;53.41
46778;BME280;32536;47.128;8.746;2023-04-20T03:14:51;91040.19;;;8.36;52.75
46778;BME280;32536;47.128;8.746;2023-04-20T03:17:17;91047.47;;;8.35;52.80
46778;BME280;32536;47.128;8.746;2023-04-20T03:19:44;91046.31;;;8.36;52.61
46778;BME280;32536;47.128;8.746;2023-04-20T03:22:11;91034.88;;;8.36;52.51
46778;BME280;32536;47.128;8.746;2023-04-20T03:24:37;91028.00;;;8.34;52.45
46778;BME280;32536;47.128;8.746;2023-04-20T03:27:04;91034.13;;;8.35;52.02
46778;BME280;32536;47.128;8.746;2023-04-20T03:29:31;91032.97;;;8.36;51.98
46778;BME280;32536;47.128;8.746;2023-04-20T03:31:57;91038.31;;;8.36;52.09
46778;BME280;32536;47.128;8.746;2023-04-20T03:34:24;91035.22;;;8.38;51.94
46778;BME280;32536;47.128;8.746;2023-04-20T03:36:51;91024.53;;;8.38;52.13
46778;BME280;32536;47.128;8.746;2023-04-20T03:39:18;91029.88;;;8.38;51.86
46778;BME280;32536;47.128;8.746;2023-04-20T03:41:44;91042.13;;;8.35;51.87
46778;BME280;32536;47.128;8.746;2023-04-20T03:44:11;91035.75;;;8.29;51.71
46778;BME280;32536;47.128;8.746;2023-04-20T03:46:39;91027.84;;;8.22;52.10
46778;BME280;32536;47.128;8.746;2023-04-20T03:49:07;91036.72;;;8.11;52.40
46778;BME280;32536;47.128;8.746;2023-04-20T03:51:33;91032.59;;;8.07;52.26
46778;BME280;32536;47.128;8.746;2023-04-20T03:54:00;91029.97;;;8.03;52.13
46778;BME280;32536;47.128;8.746;2023-04-20T03:56:27;91016.06;;;7.92;52.36
46778;BME280;32536;47.128;8.746;2023-04-20T03:58:53;91018.84;;;7.81;52.01
46778;BME280;32536;47.128;8.746;2023-04-20T04:01:20;91029.56;;;7.77;52.58
46778;BME280;32536;47.128;8.746;2023-04-20T04:03:47;91029.97;;;7.76;52.71
46778;BME280;32536;47.128;8.746;2023-04-20T04:06:13;91022.47;;;7.67;52.87
46778;BME280;32536;47.128;8.746;2023-04-20T04:08:40;91014.97;;;7.58;52.60
46778;BME280;32536;47.128;8.746;2023-04-20T04:11:07;91021.53;;;7.50;53.29
46778;BME280;32536;47.128;8.746;2023-04-20T04:13:34;91019.72;;;7.43;53.03
46778;BME280;32536;47.128;8.746;2023-04-20T04:16:01;91022.03;;;7.41;53.51
46778;BME280;32536;47.128;8.746;2023-04-20T04:18:27;91032.28;;;7.43;53.04
46778;BME280;32536;47.128;8.746;2023-04-20T04:21:03;91027.75;;;7.40;53.52
46778;BME280;32536;47.128;8.746;2023-04-20T04:23:31;91013.69;;;7.39;52.86
46778;BME280;32536;47.128;8.746;2023-04-20T04:25:58;91010.31;;;7.35;53.18
46778;BME280;32536;47.128;8.746;2023-04-20T04:28:26;91019.91;;;7.29;53.34
46778;BME280;32536;47.128;8.746;2023-04-20T04:30:53;91016.50;;;7.25;53.39
46778;BME280;32536;47.128;8.746;2023-04-20T04:33:19;91025.28;;;7.25;53.30
46778;BME280;32536;47.128;8.746;2023-04-20T04:35:46;91025.59;;;7.27;53.49
46778;BME280;32536;47.128;8.746;2023-04-20T04:38:14;91011.06;;;7.35;52.72
46778;BME280;32536;47.128;8.746;2023-04-20T04:40:40;91019.78;;;7.36;52.90
46778;BME280;32536;47.128;8.746;2023-04-20T04:43:10;91006.47;;;7.36;52.74
46778;BME280;32536;47.128;8.746;2023-04-20T04:45:38;91004.97;;;7.35;52.79
46778;BME280;32536;47.128;8.746;2023-04-20T04:48:06;90995.47;;;7.34;52.99
46778;BME280;32536;47.128;8.746;2023-04-20T04:53:22;91001.22;;;7.32;52.52
46778;BME280;32536;47.128;8.746;2023-04-20T04:55:49;91011.19;;;7.25;52.73
46778;BME280;32536;47.128;8.746;2023-04-20T04:58:15;91004.75;;;7.22;52.79
46778;BME280;32536;47.128;8.746;2023-04-20T05:00:42;90992.22;;;7.19;52.63
46778;BME280;32536;47.128;8.746;2023-04-20T05:03:09;90983.88;;;7.17;53.15
46778;BME280;32536;47.128;8.746;2023-04-20T05:05:35;90994.97;;;7.12;52.88
46778;BME280;32536;47.128;8.746;2023-04-20T05:08:03;90990.47;;;7.05;53.31
46778;BME280;32536;47.128;8.746;2023-04-20T05:10:29;90979.88;;;6.98;53.27
46778;BME280;32536;47.128;8.746;2023-04-20T05:12:56;90980.69;;;6.95;53.08
46778;BME280;32536;47.128;8.746;2023-04-20T05:15:26;90986.41;;;6.93;53.51
46778;BME280;32536;47.128;8.746;2023-04-20T05:17:52;90992.16;;;6.88;53.49
46778;BME280;32536;47.128;8.746;2023-04-20T05:20:19;91007.78;;;6.86;53.15
46778;BME280;32536;47.128;8.746;2023-04-20T05:22:46;91003.22;;;6.86;53.11
46778;BME280;32536;47.128;8.746;2023-04-20T05:25:12;90989.88;;;6.90;52.86
46778;BME280;32536;47.128;8.746;2023-04-20T05:27:39;90991.34;;;6.95;53.24
46778;BME280;32536;47.128;8.746;2023-04-20T05:30:06;90996.63;;;6.98;52.83
46778;BME280;32536;47.128;8.746;2023-04-20T05:32:33;90991.66;;;7.00;52.67
46778;BME280;32536;47.128;8.746;2023-04-20T05:35:00;90990.50;;;7.01;52.52
46778;BME280;32536;47.128;8.746;2023-04-20T05:37:27;90976.03;;;7.02;52.80
46778;BME280;32536;47.128;8.746;2023-04-20T05:39:53;90982.50;;;7.01;53.58
46778;BME280;32536;47.128;8.746;2023-04-20T05:42:20;90979.84;;;7.01;53.27
46778;BME280;32536;47.128;8.746;2023-04-20T05:44:47;90974.88;;;7.03;53.06
46778;BME280;32536;47.128;8.746;2023-04-20T05:47:13;90966.09;;;7.07;53.37
46778;BME280;32536;47.128;8.746;2023-04-20T05:49:40;90975.59;;;7.08;53.21
46778;BME280;32536;47.128;8.746;2023-04-20T05:52:07;90974.84;;;7.07;52.93
46778;BME280;32536;47.128;8.746;2023-04-20T05:54:34;90980.13;;;7.11;53.21
46778;BME280;32536;47.128;8.746;2023-04-20T05:57:00;90972.84;;;7.15;53.07
46778;BME280;32536;47.128;8.746;2023-04-20T05:59:27;90975.09;;;7.16;52.76
46778;BME280;32536;47.128;8.746;2023-04-20T06:01:54;90981.22;;;7.17;53.25
46778;BME280;32536;47.128;8.746;2023-04-20T06:04:21;90988.78;;;7.18;52.94
46778;BME280;32536;47.128;8.746;2023-04-20T06:06:47;90989.50;;;7.22;52.58
46778;BME280;32536;47.128;8.746;2023-04-20T06:09:14;90994.81;;;7.22;53.50
46778;BME280;32536;47.128;8.746;2023-04-20T06:11:41;90992.56;;;7.21;53.08
46778;BME280;32536;47.128;8.746;2023-04-20T06:14:08;90986.47;;;7.24;52.59
46778;BME280;32536;47.128;8.746;2023-04-20T06:16:37;90988.34;;;7.24;52.81
46778;BME280;32536;47.128;8.746;2023-04-20T06:19:03;90985.72;;;7.20;53.25
46778;BME280;32536;47.128;8.746;2023-04-20T06:21:32;90995.63;;;7.19;52.81
46778;BME280;32536;47.128;8.746;2023-04-20T06:23:59;90991.78;;;7.24;52.64
46778;BME280;32536;47.128;8.746;2023-04-20T06:26:26;90992.50;;;7.28;52.92
46778;BME280;32536;47.128;8.746;2023-04-20T06:28:53;90982.59;;;7.29;53.25
46778;BME280;32536;47.128;8.746;2023-04-20T06:31:19;90984.09;;;7.30;53.40
46778;BME280;32536;47.128;8.746;2023-04-20T06:33:46;90990.22;;;7.27;53.30
46778;BME280;32536;47.128;8.746;2023-04-20T06:36:13;90983.38;;;7.26;53.32
46778;BME280;32536;47.128;8.746;2023-04-20T06:38:40;90987.94;;;7.29;53.71
46778;BME280;32536;47.128;8.746;2023-04-20T06:41:06;90992.03;;;7.33;53.51
46778;BME280;32536;47.128;8.746;2023-04-20T06:43:33;91003.03;;;7.39;53.11
46778;BME280;32536;47.128;8.746;2023-04-20T06:46:00;90999.91;;;7.44;53.01
46778;BME280;32536;47.128;8.746;2023-04-20T06:48:26;90991.47;;;7.49;53.28
46778;BME280;32536;47.128;8.746;2023-04-20T06:50:53;90994.44;;;7.55;53.33
46778;BME280;32536;47.128;8.746;2023-04-20T06:53:20;90997.88;;;7.56;52.96
46778;BME280;32536;47.128;8.746;2023-04-20T06:55:47;90992.88;;;7.58;53.21
46778;BME280;32536;47.128;8.746;2023-04-20T06:58:13;90993.28;;;7.56;52.74
46778;BME280;32536;47.128;8.746;2023-04-20T07:00:40;90984.94;;;7.54;52.98
46778;BME280;32536;47.128;8.746;2023-04-20T07:03:07;90989.94;;;7.52;53.48
46778;BME280;32536;47.128;8.746;2023-04-20T07:05:35;90983.88;;;7.48;53.79
46778;BME280;32536;47.128;8.746;2023-04-20T07:08:01;90984.66;;;7.48;53.50
46778;BME280;32536;47.128;8.746;2023-04-20T07:10:28;90981.22;;;7.48;53.91
46778;BME280;32536;47.128;8.746;2023-04-20T07:12:55;90980.78;;;7.49;53.43
46778;BME280;32536;47.128;8.746;2023-04-20T07:15:21;90986.09;;;7.53;54.29
46778;BME280;32536;47.128;8.746;2023-04-20T07:17:48;90983.41;;;7.53;54.43
46778;BME280;32536;47.128;8.746;2023-04-20T07:20:15;90978.53;;;7.48;53.92
46778;BME280;32536;47.128;8.746;2023-04-20T07:22:42;90981.22;;;7.48;53.96
46778;BME280;32536;47.128;8.746;2023-04-20T07:25:09;90975.09;;;7.51;53.64
46778;BME280;32536;47.128;8.746;2023-04-20T07:27:37;90975.84;;;7.51;53.56
46778;BME280;32536;47.128;8.746;2023-04-20T07:30:06;90974.72;;;7.49;53.69
46778;BME280;32536;47.128;8.746;2023-04-20T07:32:34;90976.19;;;7.53;53.77
46778;BME280;32536;47.128;8.746;2023-04-20T07:35:01;90976.59;;;7.52;54.12
46778;BME280;32536;47.128;8.746;2023-04-20T07:37:28;90977.75;;;7.51;53.66
46778;BME280;32536;47.128;8.746;2023-04-20T07:39:56;90974.31;;;7.50;53.84
46778;BME280;32536;47.128;8.746;2023-04-20T07:42:23;90971.59;;;7.54;53.42
46778;BME280;32536;47.128;8.746;2023-04-20T07:44:50;90977.72;;;7.55;54.23
46778;BME280;32536;47.128;8.746;2023-04-20T07:47:16;90986.84;;;7.53;53.99
46778;BME280;32536;47.128;8.746;2023-04-20T07:49:43;90972.38;;;7.55;53.53
46778;BME280;32536;47.128;8.746;2023-04-20T07:52:10;90979.97;;;7.56;53.73
46778;BME280;32536;47.128;8.746;2023-04-20T07:54:37;90984.16;;;7.57;53.33
46778;BME280;32536;47.128;8.746;2023-04-20T07:57:04;90977.66;;;7.58;53.41
46778;BME280;32536;47.128;8.746;2023-04-20T07:59:31;90975.34;;;7.60;53.68
46778;BME280;32536;47.128;8.746;2023-04-20T08:01:59;90978.34;;;7.62;53.38
46778;BME280;32536;47.128;8.746;2023-04-20T08:04:26;90972.25;;;7.65;53.35
46778;BME280;32536;47.128;8.746;2023-04-20T08:06:53;90975.59;;;7.69;53.11
46778;BME280;32536;47.128;8.746;2023-04-20T08:09:20;90978.97;;;7.74;53.51
46778;BME280;32536;47.128;8.746;2023-04-20T08:11:47;90981.56;;;7.77;53.56
46778;BME280;32536;47.128;8.746;2023-04-20T08:14:14;90979.22;;;7.83;53.06
46778;BME280;32536;47.128;8.746;2023-04-20T08:16:41;90979.91;;;7.87;53.01
46778;BME280;32536;47.128;8.746;2023-04-20T08:19:07;90975.31;;;7.91;53.26
46778;BME280;32536;47.128;8.746;2023-04-20T08:21:40;90982.53;;;7.91;53.00
46778;BME280;32536;47.128;8.746;2023-04-20T08:24:07;90971.91;;;7.87;53.05
46778;BME280;32536;47.128;8.746;2023-04-20T08:26:35;90975.41;;;7.84;52.85
46778;BME280;32536;47.128;8.746;2023-04-20T08:29:03;90973.84;;;7.87;53.14
46778;BME280;32536;47.128;8.746;2023-04-20T08:31:30;90965.44;;;7.88;53.04
46778;BME280;32536;47.128;8.746;2023-04-20T08:33:57;90971.91;;;7.87;53.53
46778;BME280;32536;47.128;8.746;2023-04-20T08:36:24;90973.84;;;7.87;53.41
46778;BME280;32536;47.128;8.746;2023-04-20T08:39:04;90977.25;;;7.87;54.02
46778;BME280;32536;47.128;8.746;2023-04-20T08:41:35;90974.53;;;7.91;53.65
46778;BME280;32536;47.128;8.746;2023-04-20T08:44:02;90972.63;;;7.91;52.96
46778;BME280;32536;47.128;8.746;2023-04-20T08:46:30;90968.81;;;7.92;53.21
46778;BME280;32536;47.128;8.746;2023-04-20T08:48:59;90980.59;;;7.95;53.77
46778;BME280;32536;47.128;8.746;2023-04-20T08:51:30;90975.59;;;7.97;53.24
46778;BME280;32536;47.128;8.746;2023-04-20T08:54:04;90974.44;;;7.98;53.14
46778;BME280;32536;47.128;8.746;2023-04-20T08:56:34;90974.84;;;7.96;53.62
46778;BME280;32536;47.128;8.746;2023-04-20T08:59:04;90977.88;;;7.98;53.28
46778;BME280;32536;47.128;8.746;2023-04-20T09:01:37;90977.50;;;7.96;53.67
46778;BME280;32536;47.128;8.746;2023-04-20T09:04:22;90974.03;;;7.99;53.98
46778;BME280;32536;47.128;8.746;2023-04-20T09:06:53;90967.16;;;8.02;53.32
46778;BME280;32536;47.128;8.746;2023-04-20T09:09:23;90967.16;;;8.02;52.98
46778;BME280;32536;47.128;8.746;2023-04-20T09:12:03;90958.78;;;8.00;53.66
46778;BME280;32536;47.128;8.746;2023-04-20T09:14:47;90962.59;;;7.99;53.22
46778;BME280;32536;47.128;8.746;2023-04-20T09:17:15;90957.75;;;7.94;53.08
46778;BME280;32536;47.128;8.746;2023-04-20T09:19:43;90955.47;;;7.92;53.33
46778;BME280;32536;47.128;8.746;2023-04-20T09:22:10;90967.25;;;7.95;53.08
46778;BME280;32536;47.128;8.746;2023-04-20T09:24:38;90962.31;;;7.93;53.20
46778;BME280;32536;47.128;8.746;2023-04-20T09:27:14;90953.19;;;7.91;53.29
46778;BME280;32536;47.128;8.746;2023-04-20T09:29:42;90943.75;;;7.86;53.40
46778;BME280;32536;47.128;8.746;2023-04-20T09:32:22;90945.75;;;7.78;54.12
46778;BME280;32536;47.128;8.746;2023-04-20T09:34:49;90943.16;;;7.75;53.81
46778;BME280;32536;47.128;8.746;2023-04-20T09:37:16;90946.63;;;7.72;54.21
46778;BME280;32536;47.128;8.746;2023-04-20T09:39:44;90943.97;;;7.72;54.67
46778;BME280;32536;47.128;8.746;2023-04-20T09:42:12;90944.66;;;7.76;54.90
46778;BME280;32536;47.128;8.746;2023-04-20T09:44:40;90950.69;;;7.80;54.89
46778;BME280;32536;47.128;8.746;2023-04-20T09:47:08;90941.84;;;7.87;54.24
46778;BME280;32536;47.128;8.746;2023-04-20T09:49:43;90941.69;;;7.97;54.35
46778;BME280;32536;47.128;8.746;2023-04-20T09:52:16;90937.75;;;8.06;54.21
46778;BME280;32536;47.128;8.746;2023-04-20T09:54:44;90934.94;;;8.13;54.54
46778;BME280;32536;47.128;8.746;2023-04-20T09:57:12;90937.97;;;8.15;54.31
46778;BME280;32536;47.128;8.746;2023-04-20T09:59:41;90934.22;;;8.12;54.25
46778;BME280;32536;47.128;8.746;2023-04-20T10:02:11;90941.84;;;8.10;54.42
46778;BME280;32536;47.128;8.746;2023-04-20T10:07:27;90939.06;;;7.94;55.98
46778;BME280;32536;47.128;8.746;2023-04-20T10:10:03;90943.34;;;7.88;55.41
46778;BME280;32536;47.128;8.746;2023-04-20T10:12:33;90947.19;;;7.87;54.60
46778;BME280;32536;47.128;8.746;2023-04-20T10:15:19;90934.53;;;7.91;54.30
46778;BME280;32536;47.128;8.746;2023-04-20T10:17:49;90944.81;;;7.92;54.52
46778;BME280;32536;47.128;8.746;2023-04-20T10:20:23;90944.88;;;7.89;54.36
46778;BME280;32536;47.128;8.746;2023-04-20T10:22:52;90929.56;;;7.93;54.35
46778;BME280;32536;47.128;8.746;2023-04-20T10:25:22;90930.56;;;8.02;54.63
46778;BME280;32536;47.128;8.746;2023-04-20T10:27:56;90936.56;;;8.07;54.14
46778;BME280;32536;47.128;8.746;2023-04-20T10:30:25;90934.94;;;8.13;53.28
46778;BME280;32536;47.128;8.746;2023-04-20T10:33:07;90939.59;;;8.09;55.60
46778;BME280;32536;47.128;8.746;2023-04-20T10:36:19;90940.38;;;8.09;55.02
46778;BME280;32536;47.128;8.746;2023-04-20T10:38:34;90939.19;;;8.10;54.19
46778;BME280;32536;47.128;8.746;2023-04-20T10:41:11;90941.47;;;8.12;54.54
46778;BME280;32536;47.128;8.746;2023-04-20T10:43:38;90936.41;;;8.17;54.51
46778;BME280;32536;47.128;8.746;2023-04-20T10:46:21;90936.72;;;8.23;54.53
46778;BME280;32536;47.128;8.746;2023-04-20T10:48:56;90937.69;;;8.33;53.83
46778;BME280;32536;47.128;8.746;2023-04-20T10:51:26;90934.06;;;8.43;53.97
46778;BME280;32536;47.128;8.746;2023-04-20T10:54:03;90929.47;;;8.47;54.64
46778;BME280;32536;47.128;8.746;2023-04-20T10:59:05;90930.44;;;8.57;53.81
46778;BME280;32536;47.128;8.746;2023-04-20T11:01:33;90930.38;;;8.61;53.75
46778;BME280;32536;47.128;8.746;2023-04-20T11:04:00;90926.88;;;8.64;53.72
46778;BME280;32536;47.128;8.746;2023-04-20T11:06:27;90924.50;;;8.70;53.65
46778;BME280;32536;47.128;8.746;2023-04-20T11:08:54;90919.03;;;8.77;53.83
46778;BME280;32536;47.128;8.746;2023-04-20T11:11:23;90918.91;;;8.84;53.41
46778;BME280;32536;47.128;8.746;2023-04-20T11:14:06;90910.41;;;8.89;53.67
46778;BME280;32536;47.128;8.746;2023-04-20T11:16:34;90905.13;;;8.86;53.29
46778;BME280;32536;47.128;8.746;2023-04-20T11:19:03;90902.66;;;8.75;53.55
46778;BME280;32536;47.128;8.746;2023-04-20T11:21:37;90909.69;;;8.65;53.87
46778;BME280;32536;47.128;8.746;2023-04-20T11:24:22;90915.47;;;8.63;54.27
46778;BME280;32536;47.128;8.746;2023-04-20T11:26:52;90916.56;;;8.66;53.80
46778;BME280;32536;47.128;8.746;2023-04-20T11:29:28;90912.72;;;8.67;54.05
46778;BME280;32536;47.128;8.746;2023-04-20T11:32:18;90914.50;;;8.74;53.93
46778;BME280;32536;47.128;8.746;2023-04-20T11:34:44;90910.53;;;8.82;53.74
46778;BME280;32536;47.128;8.746;2023-04-20T11:37:11;90916.22;;;8.84;53.53
46778;BME280;32536;47.128;8.746;2023-04-20T11:39:38;90908.56;;;8.86;53.84
46778;BME280;32536;47.128;8.746;2023-04-20T11:42:05;90905.47;;;8.88;53.61
46778;BME280;32536;47.128;8.746;2023-04-20T11:44:32;90912.66;;;8.91;53.77
46778;BME280;32536;47.128;8.746;2023-04-20T11:47:01;90907.31;;;8.91;54.18
46778;BME280;32536;47.128;8.746;2023-04-20T11:49:28;90904.25;;;8.92;53.84
46778;BME280;32536;47.128;8.746;2023-04-20T11:51:55;90907.25;;;8.94;53.68
46778;BME280;32536;47.128;8.746;2023-04-20T11:54:22;90902.75;;;8.91;53.82
46778;BME280;32536;47.128;8.746;2023-04-20T11:56:50;90906.22;;;8.88;53.92
46778;BME280;32536;47.128;8.746;2023-04-20T11:59:16;90905.47;;;8.88;53.88
46778;BME280;32536;47.128;8.746;2023-04-20T12:01:44;90908.63;;;8.83;53.60
46778;BME280;32536;47.128;8.746;2023-04-20T12:04:12;90898.91;;;8.72;54.12
46778;BME280;32536;47.128;8.746;2023-04-20T12:06:39;90904.72;;;8.67;54.14
46778;BME280;32536;47.128;8.746;2023-04-20T12:09:06;90911.22;;;8.66;53.98
46778;BME280;32536;47.128;8.746;2023-04-20T12:11:33;90913.47;;;8.68;53.89
46778;BME280;32536;47.128;8.746;2023-04-20T12:14:00;90911.16;;;8.70;53.85
46778;BME280;32536;47.128;8.746;2023-04-20T12:16:26;90904.31;;;8.69;53.81
46778;BME280;32536;47.128;8.746;2023-04-20T12:18:53;90916.06;;;8.71;53.73
46778;BME280;32536;47.128;8.746;2023-04-20T12:21:33;90914.50;;;8.74;54.22
46778;BME280;32536;47.128;8.746;2023-04-20T12:23:59;90903.44;;;8.75;53.76
46778;BME280;32536;47.128;8.746;2023-04-20T12:26:26;90904.53;;;8.78;53.78
46778;BME280;32536;47.128;8.746;2023-04-20T12:28:53;90904.94;;;8.76;53.67
46778;BME280;32536;47.128;8.746;2023-04-20T12:31:20;90909.56;;;8.72;53.89
46778;BME280;32536;47.128;8.746;2023-04-20T12:33:49;90907.38;;;8.67;53.69
46778;BME280;32536;47.128;8.746;2023-04-20T12:36:15;90904.50;;;8.58;54.18
46778;BME280;32536;47.128;8.746;2023-04-20T12:38:42;90910.78;;;8.47;54.32
46778;BME280;32536;47.128;8.746;2023-04-20T12:41:13;90916.97;;;8.41;54.30
46778;BME280;32536;47.128;8.746;2023-04-20T12:43:41;90917.09;;;8.33;54.11
46778;BME280;32536;47.128;8.746;2023-04-20T12:46:07;90919.47;;;8.28;54.13
46778;BME280;32536;47.128;8.746;2023-04-20T12:48:34;90926.03;;;8.23;54.69
46778;BME280;32536;47.128;8.746;2023-04-20T12:51:01;90924.88;;;8.24;54.73
46778;BME280;32536;47.128;8.746;2023-04-20T12:53:28;90930.63;;;8.23;54.24
46778;BME280;32536;47.128;8.746;2023-04-20T12:55:54;90933.69;;;8.21;54.14
46778;BME280;32536;47.128;8.746;2023-04-20T12:58:21;90954.28;;;8.21;54.53
46778;BME280;32536;47.128;8.746;2023-04-20T13:00:48;90957.69;;;8.21;54.34
46778;BME280;32536;47.128;8.746;2023-04-20T13:03:14;90960.72;;;8.23;54.26
46778;BME280;32536;47.128;8.746;2023-04-20T13:05:41;90950.72;;;8.27;54.59
46778;BME280;32536;47.128;8.746;2023-04-20T13:08:09;90938.44;;;8.33;54.42
46778;BME280;32536;47.128;8.746;2023-04-20T13:10:38;90932.66;;;8.39;54.19
46778;BME280;32536;47.128;8.746;2023-04-20T13:13:09;90942.91;;;8.40;54.43
46778;BME280;32536;47.128;8.746;2023-04-20T13:15:36;90944.13;;;8.36;54.09
46778;BME280;32536;47.128;8.746;2023-04-20T13:18:03;90955.56;;;8.36;53.95
46778;BME280;32536;47.128;8.746;2023-04-20T13:20:31;90948.66;;;8.39;54.43
46778;BME280;32536;47.128;8.746;2023-04-20T13:22:59;90955.03;;;8.45;54.23